Terminal Aerodrome Forecast
Issued by NWS New Orleans/Baton Rouge, LA

Current Version | Previous Version | Text Only | Print | Product List | Glossary On
Versions: 1 2 3 4 5 6 7 8 9 10 11 12 13 14
000
FTUS44 KLIX 012300 RRA
TAFBTR
TAF
KBTR 012340Z 0200/0224 10006KT P6SM SCT050 BKN070
     FM020200 12003KT P6SM FEW050 BKN070
     FM021400 14004KT P6SM SCT035 SCT080 PROB30 0219/0224 VRB14G24KT
      2SM TSRA BKN035CB=

USA.gov is the U.S. government's official web portal to all federal, state and local government web resources and services.